sensor_id;sensor_type;location;lat;lon;timestamp;P1;durP1;ratioP1;P2;durP2;ratioP2
3249;SDS011;1637;42.020;23.992;2023-07-13T00:01:44;13.20;;;8.60;;
3249;SDS011;1637;42.020;23.992;2023-07-13T00:04:15;13.93;;;9.27;;
3249;SDS011;1637;42.020;23.992;2023-07-13T00:06:43;11.00;;;9.57;;
3249;SDS011;1637;42.020;23.992;2023-07-13T00:09:12;11.20;;;9.67;;
3249;SDS011;1637;42.020;23.992;2023-07-13T00:11:40;9.80;;;8.80;;
3249;SDS011;1637;42.020;23.992;2023-07-13T00:14:08;14.07;;;9.40;;
3249;SDS011;1637;42.020;23.992;2023-07-13T00:16:36;9.97;;;8.83;;
3249;SDS011;1637;42.020;23.992;2023-07-13T00:19:05;11.17;;;9.10;;
3249;SDS011;1637;42.020;23.992;2023-07-13T00:21:32;15.13;;;9.00;;
3249;SDS011;1637;42.020;23.992;2023-07-13T00:23:59;17.37;;;8.83;;
3249;SDS011;1637;42.020;23.992;2023-07-13T00:26:28;13.73;;;9.73;;
3249;SDS011;1637;42.020;23.992;2023-07-13T00:28:55;13.13;;;9.00;;
3249;SDS011;1637;42.020;23.992;2023-07-13T00:31:21;13.17;;;10.23;;
3249;SDS011;1637;42.020;23.992;2023-07-13T00:33:48;12.53;;;10.20;;
3249;SDS011;1637;42.020;23.992;2023-07-13T00:36:15;14.37;;;9.37;;
3249;SDS011;1637;42.020;23.992;2023-07-13T00:38:42;12.40;;;9.90;;
3249;SDS011;1637;42.020;23.992;2023-07-13T00:41:09;11.27;;;8.77;;
3249;SDS011;1637;42.020;23.992;2023-07-13T00:43:37;14.20;;;8.63;;
3249;SDS011;1637;42.020;23.992;2023-07-13T00:46:16;11.63;;;9.60;;
3249;SDS011;1637;42.020;23.992;2023-07-13T00:48:48;13.87;;;9.30;;
3249;SDS011;1637;42.020;23.992;2023-07-13T00:51:17;13.97;;;8.77;;
3249;SDS011;1637;42.020;23.992;2023-07-13T00:53:46;16.73;;;9.73;;
3249;SDS011;1637;42.020;23.992;2023-07-13T00:56:13;14.27;;;9.30;;
3249;SDS011;1637;42.020;23.992;2023-07-13T00:58:42;14.83;;;9.37;;
3249;SDS011;1637;42.020;23.992;2023-07-13T01:01:09;14.47;;;9.83;;
3249;SDS011;1637;42.020;23.992;2023-07-13T01:03:38;10.40;;;9.30;;
3249;SDS011;1637;42.020;23.992;2023-07-13T01:06:05;14.17;;;9.90;;
3249;SDS011;1637;42.020;23.992;2023-07-13T01:08:32;11.57;;;10.10;;
3249;SDS011;1637;42.020;23.992;2023-07-13T01:10:59;13.03;;;9.67;;
3249;SDS011;1637;42.020;23.992;2023-07-13T01:13:26;13.97;;;10.17;;
3249;SDS011;1637;42.020;23.992;2023-07-13T01:15:55;13.13;;;9.47;;
3249;SDS011;1637;42.020;23.992;2023-07-13T01:18:26;12.00;;;9.07;;
3249;SDS011;1637;42.020;23.992;2023-07-13T01:20:56;10.20;;;9.20;;
3249;SDS011;1637;42.020;23.992;2023-07-13T01:23:24;19.07;;;9.63;;
3249;SDS011;1637;42.020;23.992;2023-07-13T01:25:51;13.33;;;10.10;;
3249;SDS011;1637;42.020;23.992;2023-07-13T01:28:20;20.27;;;10.63;;
3249;SDS011;1637;42.020;23.992;2023-07-13T01:30:48;19.50;;;11.10;;
3249;SDS011;1637;42.020;23.992;2023-07-13T01:33:15;12.50;;;10.00;;
3249;SDS011;1637;42.020;23.992;2023-07-13T01:35:43;12.77;;;10.20;;
3249;SDS011;1637;42.020;23.992;2023-07-13T01:38:13;11.30;;;9.27;;
3249;SDS011;1637;42.020;23.992;2023-07-13T01:40:40;14.03;;;10.53;;
3249;SDS011;1637;42.020;23.992;2023-07-13T01:43:08;12.97;;;10.17;;
3249;SDS011;1637;42.020;23.992;2023-07-13T01:45:35;10.47;;;9.20;;
3249;SDS011;1637;42.020;23.992;2023-07-13T01:48:02;12.10;;;10.03;;
3249;SDS011;1637;42.020;23.992;2023-07-13T01:50:31;13.20;;;9.80;;
3249;SDS011;1637;42.020;23.992;2023-07-13T01:52:58;11.63;;;10.13;;
3249;SDS011;1637;42.020;23.992;2023-07-13T01:55:27;10.13;;;9.13;;
3249;SDS011;1637;42.020;23.992;2023-07-13T01:57:54;13.63;;;10.13;;
3249;SDS011;1637;42.020;23.992;2023-07-13T02:00:21;16.73;;;10.13;;
3249;SDS011;1637;42.020;23.992;2023-07-13T02:02:48;13.60;;;10.67;;
3249;SDS011;1637;42.020;23.992;2023-07-13T02:05:14;10.33;;;9.00;;
3249;SDS011;1637;42.020;23.992;2023-07-13T02:07:41;17.37;;;10.50;;
3249;SDS011;1637;42.020;23.992;2023-07-13T02:10:09;14.47;;;10.20;;
3249;SDS011;1637;42.020;23.992;2023-07-13T02:12:38;16.40;;;10.10;;
3249;SDS011;1637;42.020;23.992;2023-07-13T02:15:05;11.47;;;10.37;;
3249;SDS011;1637;42.020;23.992;2023-07-13T02:17:33;12.30;;;9.90;;
3249;SDS011;1637;42.020;23.992;2023-07-13T02:20:00;13.10;;;11.27;;
3249;SDS011;1637;42.020;23.992;2023-07-13T02:22:27;12.30;;;10.20;;
3249;SDS011;1637;42.020;23.992;2023-07-13T02:24:54;13.20;;;9.47;;
3249;SDS011;1637;42.020;23.992;2023-07-13T02:27:21;13.80;;;10.50;;
3249;SDS011;1637;42.020;23.992;2023-07-13T02:29:49;12.67;;;9.50;;
3249;SDS011;1637;42.020;23.992;2023-07-13T02:32:17;12.53;;;9.03;;
3249;SDS011;1637;42.020;23.992;2023-07-13T02:34:44;10.90;;;8.10;;
3249;SDS011;1637;42.020;23.992;2023-07-13T02:37:11;12.20;;;8.50;;
3249;SDS011;1637;42.020;23.992;2023-07-13T02:39:38;15.40;;;10.40;;
3249;SDS011;1637;42.020;23.992;2023-07-13T02:42:05;12.47;;;10.37;;
3249;SDS011;1637;42.020;23.992;2023-07-13T02:44:32;13.20;;;10.63;;
3249;SDS011;1637;42.020;23.992;2023-07-13T02:47:01;23.60;;;11.53;;
3249;SDS011;1637;42.020;23.992;2023-07-13T02:49:27;19.40;;;12.10;;
3249;SDS011;1637;42.020;23.992;2023-07-13T02:51:54;14.50;;;11.17;;
3249;SDS011;1637;42.020;23.992;2023-07-13T02:54:21;16.30;;;11.80;;
3249;SDS011;1637;42.020;23.992;2023-07-13T02:56:48;15.70;;;10.33;;
3249;SDS011;1637;42.020;23.992;2023-07-13T02:59:15;14.70;;;10.40;;
3249;SDS011;1637;42.020;23.992;2023-07-13T03:01:41;16.20;;;10.00;;
3249;SDS011;1637;42.020;23.992;2023-07-13T03:04:09;14.50;;;10.40;;
3249;SDS011;1637;42.020;23.992;2023-07-13T03:06:37;12.10;;;10.63;;
3249;SDS011;1637;42.020;23.992;2023-07-13T03:09:04;17.33;;;12.23;;
3249;SDS011;1637;42.020;23.992;2023-07-13T03:11:31;20.20;;;11.87;;
3249;SDS011;1637;42.020;23.992;2023-07-13T03:13:58;16.43;;;10.90;;
3249;SDS011;1637;42.020;23.992;2023-07-13T03:16:25;15.47;;;11.27;;
3249;SDS011;1637;42.020;23.992;2023-07-13T03:18:52;13.10;;;10.90;;
3249;SDS011;1637;42.020;23.992;2023-07-13T03:21:20;14.73;;;10.53;;
3249;SDS011;1637;42.020;23.992;2023-07-13T03:23:47;14.77;;;10.43;;
3249;SDS011;1637;42.020;23.992;2023-07-13T03:26:15;14.93;;;10.37;;
3249;SDS011;1637;42.020;23.992;2023-07-13T03:28:44;20.30;;;10.30;;
3249;SDS011;1637;42.020;23.992;2023-07-13T03:31:12;13.17;;;10.97;;
3249;SDS011;1637;42.020;23.992;2023-07-13T03:33:40;33.67;;;11.33;;
3249;SDS011;1637;42.020;23.992;2023-07-13T03:36:15;37.80;;;13.60;;
3249;SDS011;1637;42.020;23.992;2023-07-13T03:38:45;17.33;;;11.30;;
3249;SDS011;1637;42.020;23.992;2023-07-13T03:41:13;12.90;;;9.53;;
3249;SDS011;1637;42.020;23.992;2023-07-13T03:43:40;27.40;;;11.90;;
3249;SDS011;1637;42.020;23.992;2023-07-13T03:46:07;23.17;;;10.60;;
3249;SDS011;1637;42.020;23.992;2023-07-13T03:48:34;15.63;;;8.80;;
3249;SDS011;1637;42.020;23.992;2023-07-13T03:51:01;14.60;;;9.80;;
3249;SDS011;1637;42.020;23.992;2023-07-13T03:53:28;10.97;;;9.03;;
3249;SDS011;1637;42.020;23.992;2023-07-13T03:55:56;27.70;;;12.67;;
3249;SDS011;1637;42.020;23.992;2023-07-13T03:58:23;18.20;;;10.23;;
3249;SDS011;1637;42.020;23.992;2023-07-13T04:00:55;14.67;;;9.77;;
3249;SDS011;1637;42.020;23.992;2023-07-13T04:03:22;16.70;;;9.73;;
3249;SDS011;1637;42.020;23.992;2023-07-13T04:05:49;17.57;;;9.90;;
3249;SDS011;1637;42.020;23.992;2023-07-13T04:08:16;15.03;;;8.87;;
3249;SDS011;1637;42.020;23.992;2023-07-13T04:10:43;10.60;;;7.93;;
3249;SDS011;1637;42.020;23.992;2023-07-13T04:13:12;16.83;;;9.33;;
3249;SDS011;1637;42.020;23.992;2023-07-13T04:15:40;15.47;;;8.97;;
3249;SDS011;1637;42.020;23.992;2023-07-13T04:18:06;11.63;;;9.93;;
3249;SDS011;1637;42.020;23.992;2023-07-13T04:20:34;10.80;;;9.70;;
3249;SDS011;1637;42.020;23.992;2023-07-13T04:23:00;21.37;;;10.50;;
3249;SDS011;1637;42.020;23.992;2023-07-13T04:25:27;15.10;;;9.43;;
3249;SDS011;1637;42.020;23.992;2023-07-13T04:27:54;17.50;;;11.17;;
3249;SDS011;1637;42.020;23.992;2023-07-13T04:30:23;15.60;;;10.83;;
3249;SDS011;1637;42.020;23.992;2023-07-13T04:32:50;20.20;;;10.63;;
3249;SDS011;1637;42.020;23.992;2023-07-13T04:35:18;12.77;;;10.43;;
3249;SDS011;1637;42.020;23.992;2023-07-13T04:37:47;15.03;;;12.20;;
3249;SDS011;1637;42.020;23.992;2023-07-13T04:40:15;16.57;;;13.63;;
3249;SDS011;1637;42.020;23.992;2023-07-13T04:42:43;16.03;;;11.40;;
3249;SDS011;1637;42.020;23.992;2023-07-13T04:45:10;15.57;;;11.67;;
3249;SDS011;1637;42.020;23.992;2023-07-13T04:47:39;26.13;;;11.70;;
3249;SDS011;1637;42.020;23.992;2023-07-13T04:50:07;15.80;;;11.13;;
3249;SDS011;1637;42.020;23.992;2023-07-13T04:52:35;21.27;;;12.47;;
3249;SDS011;1637;42.020;23.992;2023-07-13T04:55:02;19.97;;;13.00;;
3249;SDS011;1637;42.020;23.992;2023-07-13T04:57:30;15.40;;;13.67;;
3249;SDS011;1637;42.020;23.992;2023-07-13T04:59:57;19.30;;;11.87;;
3249;SDS011;1637;42.020;23.992;2023-07-13T05:02:26;13.90;;;11.33;;
3249;SDS011;1637;42.020;23.992;2023-07-13T05:04:54;13.10;;;11.30;;
3249;SDS011;1637;42.020;23.992;2023-07-13T05:07:21;18.50;;;10.83;;
3249;SDS011;1637;42.020;23.992;2023-07-13T05:09:48;19.57;;;11.27;;
3249;SDS011;1637;42.020;23.992;2023-07-13T05:12:15;21.33;;;11.53;;
3249;SDS011;1637;42.020;23.992;2023-07-13T05:14:42;18.90;;;11.33;;
3249;SDS011;1637;42.020;23.992;2023-07-13T05:17:08;13.80;;;11.77;;
3249;SDS011;1637;42.020;23.992;2023-07-13T05:19:35;14.13;;;12.10;;
3249;SDS011;1637;42.020;23.992;2023-07-13T05:22:04;18.43;;;12.10;;
3249;SDS011;1637;42.020;23.992;2023-07-13T05:24:31;35.47;;;31.90;;
3249;SDS011;1637;42.020;23.992;2023-07-13T05:26:58;16.07;;;11.90;;
3249;SDS011;1637;42.020;23.992;2023-07-13T05:29:24;18.93;;;12.83;;
3249;SDS011;1637;42.020;23.992;2023-07-13T05:31:51;22.47;;;12.00;;
3249;SDS011;1637;42.020;23.992;2023-07-13T05:34:18;12.17;;;10.87;;
3249;SDS011;1637;42.020;23.992;2023-07-13T05:36:45;17.53;;;14.20;;
3249;SDS011;1637;42.020;23.992;2023-07-13T05:39:13;31.97;;;14.70;;
3249;SDS011;1637;42.020;23.992;2023-07-13T05:41:40;16.17;;;11.47;;
3249;SDS011;1637;42.020;23.992;2023-07-13T05:44:07;19.40;;;12.73;;
3249;SDS011;1637;42.020;23.992;2023-07-13T05:46:34;19.67;;;12.73;;
3249;SDS011;1637;42.020;23.992;2023-07-13T05:49:01;23.07;;;14.27;;
3249;SDS011;1637;42.020;23.992;2023-07-13T05:51:28;14.60;;;11.77;;
3249;SDS011;1637;42.020;23.992;2023-07-13T05:53:55;14.17;;;11.60;;
3249;SDS011;1637;42.020;23.992;2023-07-13T05:56:23;18.07;;;11.93;;
3249;SDS011;1637;42.020;23.992;2023-07-13T05:58:51;17.97;;;12.13;;
3249;SDS011;1637;42.020;23.992;2023-07-13T06:01:18;12.10;;;10.43;;
3249;SDS011;1637;42.020;23.992;2023-07-13T06:03:46;20.33;;;11.90;;
3249;SDS011;1637;42.020;23.992;2023-07-13T06:06:13;13.33;;;10.80;;
3249;SDS011;1637;42.020;23.992;2023-07-13T06:08:42;16.90;;;10.43;;
3249;SDS011;1637;42.020;23.992;2023-07-13T06:11:10;22.50;;;11.80;;
3249;SDS011;1637;42.020;23.992;2023-07-13T06:13:42;14.60;;;11.07;;
3249;SDS011;1637;42.020;23.992;2023-07-13T06:16:08;17.27;;;12.10;;
3249;SDS011;1637;42.020;23.992;2023-07-13T06:18:36;21.50;;;12.07;;
3249;SDS011;1637;42.020;23.992;2023-07-13T06:21:07;21.43;;;19.07;;
3249;SDS011;1637;42.020;23.992;2023-07-13T06:23:34;35.00;;;30.60;;
3249;SDS011;1637;42.020;23.992;2023-07-13T06:26:02;29.60;;;17.97;;
3249;SDS011;1637;42.020;23.992;2023-07-13T06:28:29;29.33;;;13.90;;
3249;SDS011;1637;42.020;23.992;2023-07-13T06:30:58;17.77;;;12.80;;
3249;SDS011;1637;42.020;23.992;2023-07-13T06:33:25;17.90;;;13.70;;
3249;SDS011;1637;42.020;23.992;2023-07-13T06:35:52;28.83;;;15.07;;
3249;SDS011;1637;42.020;23.992;2023-07-13T06:38:20;15.40;;;12.00;;
3249;SDS011;1637;42.020;23.992;2023-07-13T06:40:47;17.43;;;13.47;;
3249;SDS011;1637;42.020;23.992;2023-07-13T06:43:13;17.90;;;14.07;;
3249;SDS011;1637;42.020;23.992;2023-07-13T06:45:41;20.95;;;10.30;;
3249;SDS011;1637;42.020;23.992;2023-07-13T06:48:12;15.00;;;9.27;;
3249;SDS011;1637;42.020;23.992;2023-07-13T06:50:39;13.27;;;11.43;;
3249;SDS011;1637;42.020;23.992;2023-07-13T06:53:07;18.90;;;11.70;;
3249;SDS011;1637;42.020;23.992;2023-07-13T06:55:34;16.67;;;10.93;;
3249;SDS011;1637;42.020;23.992;2023-07-13T06:58:01;12.55;;;10.80;;
3249;SDS011;1637;42.020;23.992;2023-07-13T07:00:28;15.18;;;9.05;;
3249;SDS011;1637;42.020;23.992;2023-07-13T07:02:55;18.63;;;13.48;;
3249;SDS011;1637;42.020;23.992;2023-07-13T07:05:23;15.77;;;8.90;;
3249;SDS011;1637;42.020;23.992;2023-07-13T07:07:50;14.60;;;8.98;;
3249;SDS011;1637;42.020;23.992;2023-07-13T07:10:18;10.93;;;8.27;;
3249;SDS011;1637;42.020;23.992;2023-07-13T07:12:45;11.05;;;8.07;;
3249;SDS011;1637;42.020;23.992;2023-07-13T07:15:12;12.25;;;8.68;;
3249;SDS011;1637;42.020;23.992;2023-07-13T07:17:40;9.68;;;8.52;;
3249;SDS011;1637;42.020;23.992;2023-07-13T07:20:07;13.93;;;8.63;;
3249;SDS011;1637;42.020;23.992;2023-07-13T07:22:36;8.60;;;7.70;;
3249;SDS011;1637;42.020;23.992;2023-07-13T07:25:03;19.58;;;8.65;;
3249;SDS011;1637;42.020;23.992;2023-07-13T07:27:30;14.85;;;10.23;;
3249;SDS011;1637;42.020;23.992;2023-07-13T07:29:57;11.00;;;8.60;;
3249;SDS011;1637;42.020;23.992;2023-07-13T07:32:24;8.52;;;6.82;;
3249;SDS011;1637;42.020;23.992;2023-07-13T07:34:50;14.13;;;7.55;;
3249;SDS011;1637;42.020;23.992;2023-07-13T07:37:17;12.82;;;6.80;;
3249;SDS011;1637;42.020;23.992;2023-07-13T07:39:45;21.17;;;8.23;;
3249;SDS011;1637;42.020;23.992;2023-07-13T07:42:12;7.38;;;6.63;;
3249;SDS011;1637;42.020;23.992;2023-07-13T07:44:39;8.10;;;6.10;;
3249;SDS011;1637;42.020;23.992;2023-07-13T07:47:07;8.32;;;7.53;;
3249;SDS011;1637;42.020;23.992;2023-07-13T07:49:34;8.63;;;7.75;;
3249;SDS011;1637;42.020;23.992;2023-07-13T07:52:01;8.65;;;7.30;;
3249;SDS011;1637;42.020;23.992;2023-07-13T07:54:28;7.75;;;6.85;;
3249;SDS011;1637;42.020;23.992;2023-07-13T07:56:57;10.00;;;6.88;;
3249;SDS011;1637;42.020;23.992;2023-07-13T07:59:24;7.78;;;6.07;;
3249;SDS011;1637;42.020;23.992;2023-07-13T08:01:51;6.25;;;5.65;;
3249;SDS011;1637;42.020;23.992;2023-07-13T08:04:17;14.90;;;7.07;;
3249;SDS011;1637;42.020;23.992;2023-07-13T08:06:44;8.47;;;7.13;;
3249;SDS011;1637;42.020;23.992;2023-07-13T08:09:11;8.35;;;7.47;;
3249;SDS011;1637;42.020;23.992;2023-07-13T08:11:38;22.65;;;11.07;;
3249;SDS011;1637;42.020;23.992;2023-07-13T08:14:06;11.60;;;7.50;;
3249;SDS011;1637;42.020;23.992;2023-07-13T08:16:34;10.07;;;6.85;;
3249;SDS011;1637;42.020;23.992;2023-07-13T08:19:01;18.30;;;6.65;;
3249;SDS011;1637;42.020;23.992;2023-07-13T08:21:29;8.05;;;5.38;;
3249;SDS011;1637;42.020;23.992;2023-07-13T08:23:56;12.88;;;6.97;;
3249;SDS011;1637;42.020;23.992;2023-07-13T08:26:23;7.50;;;6.38;;
3249;SDS011;1637;42.020;23.992;2023-07-13T08:28:49;8.77;;;6.18;;
3249;SDS011;1637;42.020;23.992;2023-07-13T08:31:18;12.32;;;7.18;;
3249;SDS011;1637;42.020;23.992;2023-07-13T08:33:44;7.35;;;6.65;;
3249;SDS011;1637;42.020;23.992;2023-07-13T08:36:11;8.38;;;7.15;;
3249;SDS011;1637;42.020;23.992;2023-07-13T08:38:38;10.65;;;8.18;;
3249;SDS011;1637;42.020;23.992;2023-07-13T08:41:10;10.57;;;6.32;;
3249;SDS011;1637;42.020;23.992;2023-07-13T08:43:38;8.32;;;6.55;;
3249;SDS011;1637;42.020;23.992;2023-07-13T08:46:07;10.30;;;6.07;;
3249;SDS011;1637;42.020;23.992;2023-07-13T08:48:39;9.88;;;6.00;;
3249;SDS011;1637;42.020;23.992;2023-07-13T08:51:10;7.65;;;6.78;;
3249;SDS011;1637;42.020;23.992;2023-07-13T08:53:58;7.38;;;5.18;;
3249;SDS011;1637;42.020;23.992;2023-07-13T08:56:28;10.18;;;5.68;;
3249;SDS011;1637;42.020;23.992;2023-07-13T08:58:56;10.57;;;5.60;;
3249;SDS011;1637;42.020;23.992;2023-07-13T09:01:34;8.68;;;6.70;;
3249;SDS011;1637;42.020;23.992;2023-07-13T09:04:22;11.93;;;10.93;;
3249;SDS011;1637;42.020;23.992;2023-07-13T09:06:58;13.10;;;6.43;;
3249;SDS011;1637;42.020;23.992;2023-07-13T09:09:33;11.50;;;8.52;;
3249;SDS011;1637;42.020;23.992;2023-07-13T09:12:16;12.32;;;5.45;;
3249;SDS011;1637;42.020;23.992;2023-07-13T09:15:01;13.73;;;5.57;;
3249;SDS011;1637;42.020;23.992;2023-07-13T09:17:31;6.72;;;5.22;;
3249;SDS011;1637;42.020;23.992;2023-07-13T09:20:04;9.32;;;4.90;;
3249;SDS011;1637;42.020;23.992;2023-07-13T09:22:40;9.18;;;5.40;;
3249;SDS011;1637;42.020;23.992;2023-07-13T09:25:12;8.60;;;5.15;;
3249;SDS011;1637;42.020;23.992;2023-07-13T09:27:49;9.80;;;5.10;;
3249;SDS011;1637;42.020;23.992;2023-07-13T09:30:23;10.75;;;5.15;;
3249;SDS011;1637;42.020;23.992;2023-07-13T09:32:55;7.15;;;5.30;;
3249;SDS011;1637;42.020;23.992;2023-07-13T09:35:26;13.48;;;6.13;;
3249;SDS011;1637;42.020;23.992;2023-07-13T09:37:57;5.70;;;5.20;;
3249;SDS011;1637;42.020;23.992;2023-07-13T09:40:27;9.45;;;5.75;;
3249;SDS011;1637;42.020;23.992;2023-07-13T09:43:02;6.68;;;5.18;;
3249;SDS011;1637;42.020;23.992;2023-07-13T09:45:32;10.65;;;5.45;;
3249;SDS011;1637;42.020;23.992;2023-07-13T09:48:03;7.97;;;4.45;;
3249;SDS011;1637;42.020;23.992;2023-07-13T09:50:34;11.30;;;5.03;;
3249;SDS011;1637;42.020;23.992;2023-07-13T09:53:02;5.65;;;5.10;;
3249;SDS011;1637;42.020;23.992;2023-07-13T09:55:30;9.10;;;4.63;;
3249;SDS011;1637;42.020;23.992;2023-07-13T09:58:02;9.82;;;6.32;;
3249;SDS011;1637;42.020;23.992;2023-07-13T10:00:30;5.03;;;4.53;;
3249;SDS011;1637;42.020;23.992;2023-07-13T10:02:58;13.10;;;4.63;;
3249;SDS011;1637;42.020;23.992;2023-07-13T10:05:38;6.63;;;4.07;;
3249;SDS011;1637;42.020;23.992;2023-07-13T10:08:14;8.55;;;4.65;;
3249;SDS011;1637;42.020;23.992;2023-07-13T10:10:43;9.13;;;4.65;;
3249;SDS011;1637;42.020;23.992;2023-07-13T10:13:28;7.68;;;4.38;;
3249;SDS011;1637;42.020;23.992;2023-07-13T10:15:59;6.50;;;4.57;;
3249;SDS011;1637;42.020;23.992;2023-07-13T10:18:26;10.07;;;8.10;;
3249;SDS011;1637;42.020;23.992;2023-07-13T10:21:00;11.82;;;4.78;;
3249;SDS011;1637;42.020;23.992;2023-07-13T10:23:38;12.57;;;4.72;;
3249;SDS011;1637;42.020;23.992;2023-07-13T10:26:09;7.65;;;4.22;;
3249;SDS011;1637;42.020;23.992;2023-07-13T10:28:43;5.93;;;4.07;;
3249;SDS011;1637;42.020;23.992;2023-07-13T10:31:14;10.35;;;4.72;;
3249;SDS011;1637;42.020;23.992;2023-07-13T10:33:42;34.10;;;30.67;;
3249;SDS011;1637;42.020;23.992;2023-07-13T10:36:15;9.52;;;4.00;;
3249;SDS011;1637;42.020;23.992;2023-07-13T10:38:50;7.47;;;5.30;;
3249;SDS011;1637;42.020;23.992;2023-07-13T10:41:20;15.55;;;5.93;;
3249;SDS011;1637;42.020;23.992;2023-07-13T10:43:50;7.72;;;5.28;;
3249;SDS011;1637;42.020;23.992;2023-07-13T10:46:20;10.10;;;5.28;;
3249;SDS011;1637;42.020;23.992;2023-07-13T10:48:52;7.20;;;5.35;;
3249;SDS011;1637;42.020;23.992;2023-07-13T10:51:23;7.45;;;4.40;;
3249;SDS011;1637;42.020;23.992;2023-07-13T10:56:41;10.02;;;4.75;;
3249;SDS011;1637;42.020;23.992;2023-07-13T10:59:10;10.18;;;4.72;;
3249;SDS011;1637;42.020;23.992;2023-07-13T11:01:41;8.07;;;4.40;;
3249;SDS011;1637;42.020;23.992;2023-07-13T11:04:16;18.92;;;5.68;;
3249;SDS011;1637;42.020;23.992;2023-07-13T11:06:47;16.35;;;4.47;;
3249;SDS011;1637;42.020;23.992;2023-07-13T11:09:25;11.25;;;4.72;;
3249;SDS011;1637;42.020;23.992;2023-07-13T11:11:58;14.63;;;4.60;;
3249;SDS011;1637;42.020;23.992;2023-07-13T11:14:27;9.70;;;4.47;;
3249;SDS011;1637;42.020;23.992;2023-07-13T11:20:10;13.85;;;4.70;;
3249;SDS011;1637;42.020;23.992;2023-07-13T11:22:50;11.82;;;4.90;;
3249;SDS011;1637;42.020;23.992;2023-07-13T11:25:26;10.38;;;4.88;;
3249;SDS011;1637;42.020;23.992;2023-07-13T11:28:05;7.80;;;4.85;;
3249;SDS011;1637;42.020;23.992;2023-07-13T11:30:40;13.48;;;4.88;;
3249;SDS011;1637;42.020;23.992;2023-07-13T11:33:19;10.70;;;4.20;;
3249;SDS011;1637;42.020;23.992;2023-07-13T11:35:53;7.22;;;4.07;;
3249;SDS011;1637;42.020;23.992;2023-07-13T11:38:30;9.50;;;4.47;;
3249;SDS011;1637;42.020;23.992;2023-07-13T11:41:02;8.07;;;4.90;;
3249;SDS011;1637;42.020;23.992;2023-07-13T11:43:30;10.27;;;4.63;;
3249;SDS011;1637;42.020;23.992;2023-07-13T11:46:11;18.73;;;5.32;;
3249;SDS011;1637;42.020;23.992;2023-07-13T11:48:39;11.48;;;3.90;;
3249;SDS011;1637;42.020;23.992;2023-07-13T11:51:06;18.30;;;5.00;;
3249;SDS011;1637;42.020;23.992;2023-07-13T11:53:47;7.30;;;4.90;;
3249;SDS011;1637;42.020;23.992;2023-07-13T11:56:16;8.40;;;4.07;;
3249;SDS011;1637;42.020;23.992;2023-07-13T11:58:47;10.43;;;4.53;;
3249;SDS011;1637;42.020;23.992;2023-07-13T12:01:16;17.35;;;5.65;;
3249;SDS011;1637;42.020;23.992;2023-07-13T12:03:47;18.88;;;4.68;;
3249;SDS011;1637;42.020;23.992;2023-07-13T12:09:01;7.55;;;3.83;;
3249;SDS011;1637;42.020;23.992;2023-07-13T12:11:39;10.65;;;5.10;;
3249;SDS011;1637;42.020;23.992;2023-07-13T12:14:12;5.80;;;3.97;;
3249;SDS011;1637;42.020;23.992;2023-07-13T12:16:40;9.77;;;4.57;;
3249;SDS011;1637;42.020;23.992;2023-07-13T12:19:13;8.43;;;4.63;;
3249;SDS011;1637;42.020;23.992;2023-07-13T12:21:44;10.38;;;4.88;;
3249;SDS011;1637;42.020;23.992;2023-07-13T12:24:16;20.05;;;4.88;;
3249;SDS011;1637;42.020;23.992;2023-07-13T12:26:50;10.82;;;4.55;;
3249;SDS011;1637;42.020;23.992;2023-07-13T12:29:18;4.32;;;3.92;;
3249;SDS011;1637;42.020;23.992;2023-07-13T12:31:46;10.55;;;4.68;;
3249;SDS011;1637;42.020;23.992;2023-07-13T12:34:15;7.05;;;4.05;;
3249;SDS011;1637;42.020;23.992;2023-07-13T12:36:45;14.13;;;4.80;;
3249;SDS011;1637;42.020;23.992;2023-07-13T12:39:17;11.45;;;5.30;;
3249;SDS011;1637;42.020;23.992;2023-07-13T12:41:46;8.65;;;4.10;;
3249;SDS011;1637;42.020;23.992;2023-07-13T12:44:16;10.98;;;4.70;;
3249;SDS011;1637;42.020;23.992;2023-07-13T12:46:56;8.15;;;4.75;;
3249;SDS011;1637;42.020;23.992;2023-07-13T12:49:27;7.40;;;4.43;;
3249;SDS011;1637;42.020;23.992;2023-07-13T12:51:58;10.75;;;4.55;;
3249;SDS011;1637;42.020;23.992;2023-07-13T12:54:28;7.30;;;4.53;;
3249;SDS011;1637;42.020;23.992;2023-07-13T12:56:56;15.25;;;4.85;;
3249;SDS011;1637;42.020;23.992;2023-07-13T12:59:29;13.07;;;5.40;;
3249;SDS011;1637;42.020;23.992;2023-07-13T13:02:01;8.18;;;5.15;;
3249;SDS011;1637;42.020;23.992;2023-07-13T13:04:29;13.55;;;4.65;;
3249;SDS011;1637;42.020;23.992;2023-07-13T13:07:00;10.20;;;4.43;;
3249;SDS011;1637;42.020;23.992;2023-07-13T13:09:30;19.40;;;5.40;;
3249;SDS011;1637;42.020;23.992;2023-07-13T13:11:57;13.68;;;5.15;;
3249;SDS011;1637;42.020;23.992;2023-07-13T13:14:25;15.45;;;4.70;;
3249;SDS011;1637;42.020;23.992;2023-07-13T13:16:52;5.97;;;4.60;;
3249;SDS011;1637;42.020;23.992;2023-07-13T13:19:20;9.85;;;5.38;;
3249;SDS011;1637;42.020;23.992;2023-07-13T13:21:49;10.48;;;4.82;;
3249;SDS011;1637;42.020;23.992;2023-07-13T13:24:18;12.48;;;4.45;;
3249;SDS011;1637;42.020;23.992;2023-07-13T13:26:47;16.90;;;5.53;;
3249;SDS011;1637;42.020;23.992;2023-07-13T13:29:16;11.05;;;5.15;;
3249;SDS011;1637;42.020;23.992;2023-07-13T13:31:44;17.98;;;5.85;;
3249;SDS011;1637;42.020;23.992;2023-07-13T13:34:13;21.92;;;10.20;;
3249;SDS011;1637;42.020;23.992;2023-07-13T13:36:41;13.90;;;4.80;;
3249;SDS011;1637;42.020;23.992;2023-07-13T13:39:19;9.95;;;4.97;;
3249;SDS011;1637;42.020;23.992;2023-07-13T13:41:49;13.85;;;5.15;;
3249;SDS011;1637;42.020;23.992;2023-07-13T13:44:18;12.30;;;4.25;;
3249;SDS011;1637;42.020;23.992;2023-07-13T13:46:46;10.05;;;4.88;;
3249;SDS011;1637;42.020;23.992;2023-07-13T13:49:17;14.25;;;4.32;;
3249;SDS011;1637;42.020;23.992;2023-07-13T13:51:46;11.50;;;5.40;;
3249;SDS011;1637;42.020;23.992;2023-07-13T13:54:14;12.88;;;5.47;;
3249;SDS011;1637;42.020;23.992;2023-07-13T13:56:42;14.75;;;4.93;;
3249;SDS011;1637;42.020;23.992;2023-07-13T13:59:11;7.10;;;5.07;;
3249;SDS011;1637;42.020;23.992;2023-07-13T14:01:38;11.38;;;4.78;;
3249;SDS011;1637;42.020;23.992;2023-07-13T14:04:06;13.90;;;5.10;;
3249;SDS011;1637;42.020;23.992;2023-07-13T14:06:33;11.45;;;5.47;;
3249;SDS011;1637;42.020;23.992;2023-07-13T14:09:00;8.15;;;4.47;;
3249;SDS011;1637;42.020;23.992;2023-07-13T14:11:29;11.98;;;5.10;;
3249;SDS011;1637;42.020;23.992;2023-07-13T14:13:58;7.97;;;4.57;;
3249;SDS011;1637;42.020;23.992;2023-07-13T14:16:30;11.32;;;5.57;;
3249;SDS011;1637;42.020;23.992;2023-07-13T14:18:58;10.20;;;4.80;;
3249;SDS011;1637;42.020;23.992;2023-07-13T14:21:26;11.25;;;5.00;;
3249;SDS011;1637;42.020;23.992;2023-07-13T14:23:54;12.02;;;5.25;;
3249;SDS011;1637;42.020;23.992;2023-07-13T14:26:22;11.32;;;4.70;;
3249;SDS011;1637;42.020;23.992;2023-07-13T14:28:52;6.88;;;4.88;;
3249;SDS011;1637;42.020;23.992;2023-07-13T14:31:20;7.30;;;4.72;;
3249;SDS011;1637;42.020;23.992;2023-07-13T14:33:50;11.55;;;5.57;;
3249;SDS011;1637;42.020;23.992;2023-07-13T14:36:21;8.55;;;5.63;;
3249;SDS011;1637;42.020;23.992;2023-07-13T14:38:52;8.70;;;4.38;;
3249;SDS011;1637;42.020;23.992;2023-07-13T14:41:19;8.63;;;4.10;;
3249;SDS011;1637;42.020;23.992;2023-07-13T14:43:46;9.02;;;5.00;;
3249;SDS011;1637;42.020;23.992;2023-07-13T14:46:18;7.22;;;4.45;;
3249;SDS011;1637;42.020;23.992;2023-07-13T14:48:52;7.55;;;3.97;;
3249;SDS011;1637;42.020;23.992;2023-07-13T14:51:23;11.82;;;4.93;;
3249;SDS011;1637;42.020;23.992;2023-07-13T14:53:49;15.75;;;4.68;;
3249;SDS011;1637;42.020;23.992;2023-07-13T14:56:15;10.23;;;4.43;;
3249;SDS011;1637;42.020;23.992;2023-07-13T14:58:42;14.68;;;4.85;;
3249;SDS011;1637;42.020;23.992;2023-07-13T15:01:11;8.18;;;4.82;;
3249;SDS011;1637;42.020;23.992;2023-07-13T15:03:40;9.25;;;4.85;;
3249;SDS011;1637;42.020;23.992;2023-07-13T15:06:11;5.95;;;4.50;;